createdAt,value
2018-05-31T00:00:29.536Z,96.10
2018-05-31T00:02:59.058Z,96.20
2018-05-31T00:05:27.725Z,96.30
2018-05-31T00:07:55.802Z,96.40
2018-05-31T00:10:23.862Z,96.50
2018-05-31T00:12:51.849Z,96.60
2018-05-31T00:15:19.822Z,96.50
2018-05-31T00:17:47.801Z,96.50
2018-05-31T00:20:16.568Z,96.60
2018-05-31T00:22:46.173Z,96.70
2018-05-31T00:25:15.695Z,97.00
2018-05-31T00:27:43.710Z,97.00
2018-05-31T00:30:11.674Z,97.00
2018-05-31T00:32:39.687Z,96.90
2018-05-31T00:35:07.661Z,97.10
2018-05-31T00:37:36.410Z,97.70
2018-05-31T00:40:04.430Z,97.30
2018-05-31T00:42:32.377Z,97.30
2018-05-31T00:45:01.252Z,97.30
2018-05-31T00:47:29.381Z,97.50
2018-05-31T00:49:57.361Z,97.60
2018-05-31T00:52:25.327Z,97.50
2018-05-31T00:54:53.994Z,97.40
2018-05-31T00:57:21.983Z,97.60
2018-05-31T00:59:49.966Z,97.80
2018-05-31T01:02:18.045Z,98.00
2018-05-31T01:04:46.055Z,98.00
2018-05-31T01:07:14.793Z,98.30
2018-05-31T01:09:42.762Z,98.20
2018-05-31T01:12:10.756Z,98.40
2018-05-31T01:14:38.808Z,98.40
2018-05-31T01:17:06.821Z,98.40
2018-05-31T01:19:34.798Z,98.40
2018-05-31T01:22:04.451Z,98.80
2018-05-31T01:24:32.517Z,98.80
2018-05-31T01:27:00.597Z,98.90
2018-05-31T01:29:28.653Z,99.30
2018-05-31T01:31:56.782Z,99.20
2018-05-31T01:34:25.501Z,99.30
2018-05-31T01:36:54.457Z,99.30
2018-05-31T01:39:22.469Z,99.30
2018-05-31T01:41:50.447Z,99.30
2018-05-31T01:44:18.458Z,99.30
2018-05-31T01:46:47.193Z,99.50
2018-05-31T01:49:15.274Z,99.50
2018-05-31T01:51:44.749Z,99.60
2018-05-31T01:54:12.732Z,99.60
2018-05-31T01:56:42.237Z,99.80
2018-05-31T01:59:10.201Z,99.80
2018-05-31T02:01:38.199Z,99.70
2018-05-31T02:04:06.362Z,99.80
2018-05-31T02:06:34.391Z,99.70
2018-05-31T02:09:02.393Z,99.80
2018-05-31T02:11:30.384Z,99.90
2018-05-31T02:13:59.168Z,99.90
2018-05-31T02:16:27.905Z,99.90
2018-05-31T02:18:57.426Z,99.90
2018-05-31T02:21:25.409Z,99.90
2018-05-31T02:23:53.463Z,99.90
2018-05-31T02:26:21.437Z,99.90
2018-05-31T02:28:49.521Z,99.90
2018-05-31T02:31:17.588Z,99.90
2018-05-31T02:33:45.627Z,99.90
2018-05-31T02:36:13.622Z,99.90
2018-05-31T02:38:41.601Z,99.90
2018-05-31T02:41:09.580Z,99.90
2018-05-31T02:43:37.649Z,99.90
2018-05-31T02:46:06.541Z,99.90
2018-05-31T02:48:35.289Z,99.90
2018-05-31T02:51:03.253Z,99.90
2018-05-31T02:53:31.358Z,99.90
2018-05-31T02:55:59.329Z,99.90
2018-05-31T02:58:28.069Z,99.90
2018-05-31T03:00:57.711Z,99.90
2018-05-31T03:03:25.668Z,99.90
2018-05-31T03:05:54.487Z,99.90
2018-05-31T03:08:22.457Z,99.90
2018-05-31T03:10:50.513Z,99.90
2018-05-31T03:13:19.379Z,99.90
2018-05-31T03:15:47.367Z,99.90
2018-05-31T03:18:16.137Z,99.90
2018-05-31T03:20:44.114Z,99.90
2018-05-31T03:23:12.870Z,99.90
2018-05-31T03:25:40.859Z,99.90
2018-05-31T03:28:09.638Z,99.90
2018-05-31T03:30:37.617Z,99.90
2018-05-31T03:33:06.395Z,99.90
2018-05-31T03:35:34.397Z,99.90
2018-05-31T03:38:02.365Z,99.90
2018-05-31T03:40:30.338Z,99.90
2018-05-31T03:42:58.320Z,99.90
2018-05-31T03:45:26.301Z,99.90
2018-05-31T03:47:54.609Z,99.90
2018-05-31T03:50:22.581Z,99.90
2018-05-31T03:52:51.375Z,99.90
2018-05-31T03:55:19.348Z,99.90
2018-05-31T03:57:48.127Z,99.90
2018-05-31T04:00:16.895Z,99.90
2018-05-31T04:02:44.986Z,99.90
2018-05-31T04:05:13.764Z,99.90
2018-05-31T04:07:41.746Z,99.90
2018-05-31T04:10:10.621Z,99.90
2018-05-31T04:12:39.405Z,99.90
2018-05-31T04:15:07.471Z,99.90
2018-05-31T04:17:36.971Z,99.90
2018-05-31T04:20:05.068Z,99.90
2018-05-31T04:22:33.841Z,99.90
2018-05-31T04:25:02.582Z,99.90
2018-05-31T04:27:31.390Z,99.90
2018-05-31T04:29:59.489Z,99.90
2018-05-31T04:32:28.247Z,99.90
2018-05-31T04:34:57.864Z,99.90
2018-05-31T04:37:26.646Z,99.90
2018-05-31T04:39:54.917Z,99.90
2018-05-31T04:42:24.441Z,99.90
2018-05-31T04:44:52.503Z,99.90
2018-05-31T04:47:20.482Z,99.90
2018-05-31T04:49:49.247Z,99.90
2018-05-31T04:52:18.738Z,99.20
2018-05-31T04:54:46.718Z,99.20
2018-05-31T04:57:14.825Z,98.70
2018-05-31T04:59:43.550Z,97.00
2018-05-31T05:02:11.653Z,96.60
2018-05-31T05:04:39.640Z,96.60
2018-05-31T05:07:08.503Z,94.90
2018-05-31T05:09:36.565Z,94.90
2018-05-31T05:12:04.576Z,94.50
2018-05-31T05:14:33.313Z,93.80
2018-05-31T05:17:01.325Z,93.80
2018-05-31T05:19:29.297Z,93.50
2018-05-31T05:21:58.072Z,93.20
2018-05-31T05:24:26.052Z,93.20
2018-05-31T05:26:54.906Z,93.70
2018-05-31T05:29:22.917Z,93.70
2018-05-31T05:31:50.892Z,93.20
2018-05-31T05:34:18.934Z,93.30
2018-05-31T05:36:47.694Z,93.70
2018-05-31T05:39:15.774Z,93.60
2018-05-31T05:41:43.855Z,93.00
2018-05-31T05:44:11.907Z,92.10
2018-05-31T05:46:39.977Z,90.70
2018-05-31T05:49:07.973Z,90.90
2018-05-31T05:51:36.707Z,90.40
2018-05-31T05:54:04.758Z,90.40
2018-05-31T05:56:32.850Z,88.40
2018-05-31T05:59:00.863Z,88.90
2018-05-31T06:01:28.905Z,85.60
2018-05-31T06:03:56.898Z,85.90
2018-05-31T06:06:25.668Z,86.60
2018-05-31T06:08:53.735Z,86.60
2018-05-31T06:11:21.755Z,87.00
2018-05-31T06:13:49.876Z,86.10
2018-05-31T06:16:17.937Z,86.70
2018-05-31T06:18:46.034Z,85.30
2018-05-31T06:21:14.015Z,84.00
2018-05-31T06:23:42.895Z,80.00
2018-05-31T06:26:11.757Z,80.70
2018-05-31T06:28:39.762Z,80.50
2018-05-31T06:31:07.751Z,78.30
2018-05-31T06:33:35.782Z,77.70
2018-05-31T06:36:03.745Z,79.80
2018-05-31T06:38:32.538Z,80.80
2018-05-31T06:41:01.322Z,79.50
2018-05-31T06:43:29.365Z,79.40
2018-05-31T06:45:57.437Z,75.90
2018-05-31T06:48:25.531Z,76.00
2018-05-31T06:50:53.514Z,75.40
2018-05-31T06:53:22.389Z,75.80
2018-05-31T06:55:51.121Z,74.10
2018-05-31T06:58:19.090Z,74.80
2018-05-31T07:00:47.244Z,74.20
2018-05-31T07:03:16.829Z,71.30
2018-05-31T07:05:45.581Z,71.50
2018-05-31T07:08:13.584Z,71.50
2018-05-31T07:10:42.350Z,71.90
2018-05-31T07:13:10.329Z,71.00
2018-05-31T07:15:39.080Z,69.00
2018-05-31T07:18:07.173Z,69.00
2018-05-31T07:20:35.158Z,71.40
2018-05-31T07:23:04.139Z,74.20
2018-05-31T07:25:32.105Z,74.20
2018-05-31T07:28:00.200Z,75.40
2018-05-31T07:30:29.051Z,77.30
2018-05-31T07:32:57.122Z,77.20
2018-05-31T07:35:25.114Z,78.20
2018-05-31T07:37:53.881Z,77.00
2018-05-31T07:40:21.853Z,76.90
2018-05-31T07:42:49.849Z,75.80
2018-05-31T07:45:17.885Z,76.40
2018-05-31T07:47:45.890Z,75.40
2018-05-31T07:50:13.916Z,74.90
2018-05-31T07:52:42.001Z,74.80
2018-05-31T07:55:10.796Z,72.20
2018-05-31T07:57:39.550Z,73.40
2018-05-31T08:00:07.527Z,73.30
2018-05-31T08:02:35.501Z,68.30
2018-05-31T08:05:03.498Z,69.40
2018-05-31T08:07:32.269Z,69.50
2018-05-31T08:10:00.226Z,69.40
2018-05-31T08:12:29.717Z,70.00
2018-05-31T08:14:57.698Z,70.00
2018-05-31T08:17:25.805Z,69.10
2018-05-31T08:19:54.542Z,70.60
2018-05-31T08:22:22.629Z,70.60
2018-05-31T08:24:50.611Z,71.50
2018-05-31T08:27:19.597Z,69.50
2018-05-31T08:29:47.663Z,69.50
2018-05-31T08:32:15.711Z,71.60
2018-05-31T08:34:43.776Z,72.50
2018-05-31T08:37:11.750Z,71.80
2018-05-31T08:39:39.732Z,71.50
2018-05-31T08:42:08.567Z,68.30
2018-05-31T08:44:37.401Z,68.10
2018-05-31T08:47:05.414Z,68.10
2018-05-31T08:49:33.405Z,68.80
2018-05-31T08:52:01.435Z,69.40
2018-05-31T08:54:30.360Z,66.50
2018-05-31T08:56:58.338Z,66.40
2018-05-31T08:59:26.326Z,66.50
2018-05-31T09:01:54.331Z,67.60
2018-05-31T09:04:23.093Z,70.60
2018-05-31T09:06:51.088Z,70.70
2018-05-31T09:09:19.283Z,70.60
2018-05-31T09:11:48.941Z,70.50
2018-05-31T09:14:16.910Z,70.50
2018-05-31T09:16:44.991Z,72.40
2018-05-31T09:19:13.723Z,72.60
2018-05-31T09:21:41.930Z,72.50
2018-05-31T09:24:09.918Z,71.50
2018-05-31T09:26:38.650Z,72.40
2018-05-31T09:30:18.318Z,73.30
2018-05-31T09:32:46.469Z,73.10
2018-05-31T09:35:14.765Z,71.90
2018-05-31T09:37:43.029Z,71.30
2018-05-31T09:40:12.069Z,71.70
2018-05-31T09:42:41.142Z,72.90
2018-05-31T09:45:09.402Z,72.80
2018-05-31T09:47:38.617Z,72.80
2018-05-31T09:50:06.959Z,72.70
2018-05-31T09:52:35.238Z,72.00
2018-05-31T09:55:04.726Z,72.70
2018-05-31T09:57:33.162Z,72.70
2018-05-31T10:00:02.125Z,72.70
2018-05-31T10:02:30.503Z,72.70
2018-05-31T10:04:59.489Z,70.90
2018-05-31T10:07:28.481Z,71.90
2018-05-31T10:09:57.503Z,71.00
2018-05-31T10:12:25.741Z,70.90
2018-05-31T10:14:54.789Z,71.60
2018-05-31T10:17:23.194Z,71.40
2018-05-31T10:19:51.517Z,72.80
2018-05-31T10:22:19.733Z,71.10
2018-05-31T10:24:48.038Z,69.20
2018-05-31T10:27:17.954Z,68.80
2018-05-31T10:29:46.962Z,66.90
2018-05-31T10:32:15.915Z,66.60
2018-05-31T10:34:44.145Z,66.50
2018-05-31T10:37:12.463Z,67.80
2018-05-31T10:39:40.687Z,66.00
2018-05-31T10:42:09.001Z,65.00
2018-05-31T10:44:37.263Z,64.50
2018-05-31T10:47:05.486Z,60.40
2018-05-31T10:49:34.562Z,59.50
2018-05-31T10:52:03.577Z,61.50
2018-05-31T10:54:31.853Z,61.10
2018-05-31T10:57:00.070Z,61.70
2018-05-31T10:59:28.294Z,62.70
2018-05-31T11:01:56.562Z,59.30
2018-05-31T11:04:25.660Z,59.70
2018-05-31T11:06:54.641Z,58.90
2018-05-31T11:09:23.806Z,59.40
2018-05-31T11:11:52.025Z,59.40
2018-05-31T11:14:20.601Z,62.80
2018-05-31T11:16:49.607Z,61.20
2018-05-31T11:19:17.868Z,61.10
2018-05-31T11:21:46.895Z,58.70
2018-05-31T11:24:15.844Z,59.10
2018-05-31T11:26:44.841Z,60.10
2018-05-31T11:29:13.945Z,57.00
2018-05-31T11:31:42.165Z,57.00
2018-05-31T11:34:10.378Z,57.00
2018-05-31T11:36:39.481Z,59.20
2018-05-31T11:39:07.749Z,59.10
2018-05-31T11:41:36.764Z,59.80
2018-05-31T11:44:05.734Z,59.50
2018-05-31T11:46:34.011Z,59.50
2018-05-31T11:49:02.221Z,59.10
2018-05-31T11:51:30.477Z,60.40
2018-05-31T11:53:58.730Z,60.00
2018-05-31T11:56:26.983Z,60.80
2018-05-31T11:58:55.182Z,60.50
2018-05-31T12:01:23.413Z,61.20
2018-05-31T12:03:51.736Z,61.80
2018-05-31T12:06:19.957Z,61.50
2018-05-31T12:08:48.287Z,62.30
2018-05-31T12:11:16.502Z,62.60
2018-05-31T12:13:44.840Z,61.30
2018-05-31T12:16:13.054Z,62.90
2018-05-31T12:18:41.387Z,65.00
2018-05-31T12:21:09.607Z,67.40
2018-05-31T12:23:37.830Z,67.20
2018-05-31T12:26:06.053Z,68.40
2018-05-31T12:28:34.325Z,68.40
2018-05-31T12:31:02.561Z,69.50
2018-05-31T12:33:30.771Z,67.90
2018-05-31T12:35:59.000Z,66.80
2018-05-31T12:38:27.257Z,67.30
2018-05-31T12:40:56.250Z,69.20
2018-05-31T12:43:25.241Z,67.30
2018-05-31T12:45:54.335Z,69.30
2018-05-31T12:48:23.326Z,68.40
2018-05-31T12:50:52.333Z,69.90
2018-05-31T12:53:20.622Z,69.80
2018-05-31T12:55:48.839Z,69.50
2018-05-31T12:58:17.062Z,69.10
2018-05-31T13:00:45.293Z,69.90
2018-05-31T13:03:13.511Z,70.70
2018-05-31T13:05:41.774Z,70.00
2018-05-31T13:08:09.963Z,68.80
2018-05-31T13:10:38.179Z,68.40
2018-05-31T13:13:07.170Z,67.10
2018-05-31T13:15:35.474Z,67.00
2018-05-31T13:18:04.542Z,65.00
2018-05-31T13:20:32.737Z,65.00
2018-05-31T13:23:01.773Z,63.00
2018-05-31T13:25:30.001Z,63.00
2018-05-31T13:27:58.994Z,63.40
2018-05-31T13:30:28.110Z,63.70
2018-05-31T13:32:56.319Z,63.50
2018-05-31T13:35:24.637Z,63.60
2018-05-31T13:37:53.939Z,62.20
2018-05-31T13:40:22.918Z,60.20
2018-05-31T13:42:51.902Z,58.40
2018-05-31T13:45:20.167Z,58.20
2018-05-31T13:47:48.486Z,59.20
2018-05-31T13:50:17.562Z,58.30
2018-05-31T13:52:45.787Z,58.30
2018-05-31T13:55:14.014Z,56.70
2018-05-31T13:57:43.029Z,56.90
2018-05-31T14:00:11.235Z,56.90
2018-05-31T14:02:39.554Z,55.70
2018-05-31T14:05:08.558Z,55.80
2018-05-31T14:07:36.757Z,55.80
2018-05-31T14:10:04.995Z,54.90
2018-05-31T14:12:33.966Z,54.80
2018-05-31T14:15:02.957Z,55.00
2018-05-31T14:17:31.166Z,54.90
2018-05-31T14:19:59.403Z,54.10
2018-05-31T14:22:28.388Z,58.80
2018-05-31T14:24:57.374Z,56.90
2018-05-31T14:27:25.690Z,56.80
2018-05-31T14:29:54.658Z,58.60
2018-05-31T14:32:23.661Z,57.80
2018-05-31T14:34:51.951Z,57.70
2018-05-31T14:37:20.229Z,55.70
2018-05-31T14:39:48.446Z,56.50
2018-05-31T14:42:16.685Z,56.70
2018-05-31T14:44:44.910Z,57.90
2018-05-31T14:47:13.892Z,57.90
2018-05-31T14:49:42.197Z,58.40
2018-05-31T14:52:11.292Z,57.80
2018-05-31T14:54:40.340Z,57.20
2018-05-31T14:57:08.541Z,57.20
2018-05-31T14:59:37.535Z,59.40
2018-05-31T15:02:06.546Z,55.40
2018-05-31T15:04:34.778Z,55.40
2018-05-31T15:07:03.780Z,53.80
2018-05-31T15:09:32.790Z,54.50
2018-05-31T15:12:01.771Z,53.60
2018-05-31T15:14:30.751Z,52.60
2018-05-31T15:16:59.052Z,53.20
2018-05-31T15:19:27.337Z,53.50
2018-05-31T15:21:55.561Z,55.80
2018-05-31T15:24:23.842Z,58.40
2018-05-31T15:26:52.050Z,56.90
2018-05-31T15:29:20.398Z,56.20
2018-05-31T15:31:48.591Z,57.10
2018-05-31T15:34:17.593Z,56.90
2018-05-31T15:36:45.830Z,56.90
2018-05-31T15:39:14.849Z,55.60
2018-05-31T15:41:43.830Z,55.30
2018-05-31T15:44:12.846Z,56.50
2018-05-31T15:46:41.133Z,56.40
2018-05-31T15:49:09.402Z,56.80
2018-05-31T15:51:37.661Z,57.50
2018-05-31T15:54:05.945Z,54.80
2018-05-31T15:56:34.149Z,56.90
2018-05-31T15:59:02.373Z,56.30
2018-05-31T16:01:31.448Z,57.60
2018-05-31T16:03:59.642Z,57.40
2018-05-31T16:06:29.141Z,56.80
2018-05-31T16:08:58.134Z,56.30
2018-05-31T16:11:27.138Z,56.80
2018-05-31T16:13:55.359Z,56.70
2018-05-31T16:16:23.575Z,57.80
2018-05-31T16:18:52.580Z,59.50
2018-05-31T16:21:21.621Z,59.60
2018-05-31T16:23:49.830Z,59.60
2018-05-31T16:26:18.826Z,59.70
2018-05-31T16:28:47.913Z,61.00
2018-05-31T16:31:17.402Z,61.30
2018-05-31T16:33:46.425Z,62.10
2018-05-31T16:36:14.685Z,61.60
2018-05-31T16:38:43.667Z,61.60
2018-05-31T16:41:12.873Z,59.60
2018-05-31T16:43:41.854Z,59.90
2018-05-31T16:46:10.857Z,60.20
2018-05-31T16:48:40.387Z,61.50
2018-05-31T16:51:09.337Z,59.60
2018-05-31T16:53:38.327Z,59.70
2018-05-31T16:56:06.585Z,59.00
2018-05-31T16:58:34.814Z,61.40
2018-05-31T17:01:03.021Z,59.90
2018-05-31T17:03:31.265Z,60.30
2018-05-31T17:05:59.518Z,63.40
2018-05-31T17:08:27.794Z,59.20
2018-05-31T17:10:56.001Z,61.70
2018-05-31T17:13:24.244Z,61.90
2018-05-31T17:15:52.475Z,61.90
2018-05-31T17:18:20.690Z,59.70
2018-05-31T17:20:48.908Z,60.70
2018-05-31T17:23:17.122Z,59.40
2018-05-31T17:25:46.097Z,63.80
2018-05-31T17:28:14.533Z,63.60
2018-05-31T17:30:42.746Z,64.10
2018-05-31T17:33:11.050Z,62.90
2018-05-31T17:35:39.288Z,63.50
2018-05-31T17:38:07.596Z,64.00
2018-05-31T17:40:36.621Z,63.30
2018-05-31T17:43:04.827Z,63.20
2018-05-31T17:45:33.129Z,62.50
2018-05-31T17:48:02.142Z,61.90
2018-05-31T17:50:30.397Z,61.90
2018-05-31T17:52:59.385Z,63.10
2018-05-31T17:55:28.365Z,64.50
2018-05-31T17:57:56.654Z,64.40
2018-05-31T18:00:25.633Z,62.30
2018-05-31T18:02:54.666Z,62.00
2018-05-31T18:05:22.879Z,61.80
2018-05-31T18:07:51.103Z,63.40
2018-05-31T18:10:19.334Z,62.10
2018-05-31T18:12:47.637Z,61.20
2018-05-31T18:15:16.637Z,63.30
2018-05-31T18:17:44.847Z,63.30
2018-05-31T18:20:13.174Z,62.70
2018-05-31T18:22:43.079Z,61.00
2018-05-31T18:25:12.088Z,60.50
2018-05-31T18:27:41.060Z,62.90
2018-05-31T18:30:09.468Z,62.90
2018-05-31T18:32:37.688Z,65.70
2018-05-31T18:35:05.904Z,65.50
2018-05-31T18:37:34.994Z,66.00
2018-05-31T18:40:04.035Z,67.20
2018-05-31T18:42:32.976Z,67.50
2018-05-31T18:45:01.948Z,67.30
2018-05-31T18:47:30.988Z,66.30
2018-05-31T18:49:59.150Z,66.30
2018-05-31T18:52:27.369Z,67.40
2018-05-31T18:54:55.570Z,68.90
2018-05-31T18:57:24.568Z,69.00
2018-05-31T18:59:53.577Z,69.50
2018-05-31T19:02:21.775Z,69.50
2018-05-31T19:04:50.018Z,71.10
2018-05-31T19:07:18.998Z,72.80
2018-05-31T19:09:48.110Z,73.30
2018-05-31T19:12:16.354Z,73.30
2018-05-31T19:14:44.758Z,73.00
2018-05-31T19:17:13.025Z,73.40
2018-05-31T19:19:46.977Z,73.80
2018-05-31T19:22:15.191Z,74.50
2018-05-31T19:24:49.179Z,75.70
2018-05-31T19:27:17.393Z,77.00
2018-05-31T19:29:45.640Z,77.10
2018-05-31T19:32:13.877Z,78.80
2018-05-31T19:34:42.133Z,79.40
2018-05-31T19:37:13.107Z,79.40
2018-05-31T19:39:41.373Z,79.40
2018-05-31T19:42:15.233Z,80.40
2018-05-31T19:44:43.484Z,80.80
2018-05-31T19:47:11.685Z,81.10
2018-05-31T19:49:39.923Z,82.80
2018-05-31T19:52:13.897Z,83.90
2018-05-31T19:54:42.127Z,84.60
2018-05-31T19:57:11.141Z,86.30
2018-05-31T19:59:45.077Z,86.30
2018-05-31T20:02:19.256Z,86.60
2018-05-31T20:04:47.468Z,87.00
2018-05-31T20:07:15.903Z,87.80
2018-05-31T20:09:44.986Z,88.50
2018-05-31T20:12:13.224Z,88.40
2018-05-31T20:14:41.529Z,89.40
2018-05-31T20:17:10.535Z,89.60
2018-05-31T20:19:38.824Z,89.60
2018-05-31T20:22:07.984Z,89.80
2018-05-31T20:24:36.744Z,90.00
2018-05-31T20:27:04.969Z,90.20
2018-05-31T20:29:33.216Z,90.50
2018-05-31T20:32:02.231Z,90.80
2018-05-31T20:34:30.677Z,90.80
2018-05-31T20:36:58.970Z,91.10
2018-05-31T20:39:27.946Z,91.90
2018-05-31T20:41:56.270Z,91.90
2018-05-31T20:44:24.478Z,92.00
2018-05-31T20:46:52.718Z,92.10
2018-05-31T20:49:20.949Z,92.50
2018-05-31T20:51:49.933Z,93.10
2018-05-31T20:54:19.670Z,93.20
2018-05-31T20:56:48.030Z,93.20
2018-05-31T20:59:17.023Z,93.00
2018-05-31T21:01:46.018Z,92.80
2018-05-31T21:04:15.038Z,92.90
2018-05-31T21:06:43.249Z,92.90
2018-05-31T21:09:12.994Z,92.80
2018-05-31T21:11:42.014Z,92.90
2018-05-31T21:14:11.097Z,93.00
2018-05-31T21:16:39.297Z,93.00
2018-05-31T21:19:07.537Z,93.20
2018-05-31T21:21:35.952Z,93.40
2018-05-31T21:24:04.186Z,93.60
2018-05-31T21:26:32.632Z,93.70
2018-05-31T21:29:00.847Z,93.90
2018-05-31T21:31:29.103Z,94.10
2018-05-31T21:33:58.106Z,94.10
2018-05-31T21:36:26.376Z,94.00
2018-05-31T21:38:55.362Z,94.60
2018-05-31T21:41:24.365Z,95.00
2018-05-31T21:43:53.354Z,95.30
2018-05-31T21:46:21.645Z,95.20
2018-05-31T21:48:49.870Z,95.30
2018-05-31T21:51:18.097Z,95.40
2018-05-31T21:53:46.338Z,95.20
2018-05-31T21:56:15.313Z,95.60
2018-05-31T21:58:43.548Z,95.60
2018-05-31T22:01:11.779Z,95.60
2018-05-31T22:03:40.768Z,95.90
2018-05-31T22:06:09.753Z,95.90
2018-05-31T22:08:38.760Z,95.90
2018-05-31T22:11:07.723Z,95.80
2018-05-31T22:13:35.936Z,95.80
2018-05-31T22:16:04.318Z,96.00
2018-05-31T22:18:32.538Z,96.10
2018-05-31T22:21:00.785Z,96.00
2018-05-31T22:23:28.990Z,96.20
2018-05-31T22:25:58.729Z,96.50
2018-05-31T22:28:27.833Z,96.50
2018-05-31T22:30:56.068Z,96.50
2018-05-31T22:33:25.061Z,96.60
2018-05-31T22:35:53.366Z,96.60
2018-05-31T22:38:22.434Z,96.80
2018-05-31T22:40:50.662Z,96.80
2018-05-31T22:43:18.962Z,97.30
2018-05-31T22:45:47.203Z,96.90
2018-05-31T22:48:15.442Z,96.80
2018-05-31T22:50:44.479Z,97.30
2018-05-31T22:53:12.724Z,97.30
2018-05-31T22:55:41.717Z,97.40
2018-05-31T22:58:09.942Z,97.40
2018-05-31T23:00:38.165Z,97.50
2018-05-31T23:03:06.437Z,97.60
2018-05-31T23:05:34.694Z,97.80
2018-05-31T23:08:03.707Z,97.50
2018-05-31T23:10:31.986Z,97.50
2018-05-31T23:13:00.199Z,97.70
2018-05-31T23:15:28.522Z,97.80
2018-05-31T23:17:57.514Z,97.90
2018-05-31T23:20:26.629Z,98.00
2018-05-31T23:22:54.858Z,98.00
2018-05-31T23:25:23.159Z,98.20
2018-05-31T23:27:52.147Z,98.40
2018-05-31T23:30:21.326Z,98.60
2018-05-31T23:32:49.622Z,98.60
2018-05-31T23:35:18.625Z,98.50
2018-05-31T23:37:46.841Z,98.50
2018-05-31T23:40:15.072Z,98.60
2018-05-31T23:42:43.311Z,98.80
2018-05-31T23:45:13.009Z,98.80
2018-05-31T23:47:41.230Z,98.80
2018-05-31T23:50:09.505Z,98.90
2018-05-31T23:52:37.722Z,99.00
2018-05-31T23:55:05.959Z,99.00
2018-05-31T23:57:34.265Z,98.90
